Time;durP1;ratioP1;P1;durP2;ratioP2;P2;SDS_P1;SDS_P2;PMS_P1;PMS_P2;Temp;Humidity;BMP_temperature;BMP_pressure;BME280_temperature;BME280_humidity;BME280_pressure;Samples;Min_cycle;Max_cycle;Signal;HPM_P1;HPM_P2
2022/11/10 00:01:59;;;;;;;;;;;9.60;99.90;;;;;;4935348;28;222383;-68
2022/11/10 00:04:25;;;;;;;;;;;9.50;99.90;;;;;;4983473;28;19925;-69
2022/11/10 00:06:51;;;;;;;;;;;9.50;99.90;;;;;;4955182;28;195797;-69
2022/11/10 00:09:17;;;;;;;;;;;9.60;99.90;;;;;;4997430;28;19926;-68
2022/11/10 00:11:43;;;;;;;;;;;9.60;99.90;;;;;;4931406;28;207033;-69
2022/11/10 00:17:00;;;;;;;;;;;9.50;99.90;;;;;;4934867;28;224499;-68
2022/11/10 00:19:29;;;;;;;;;;;9.60;99.90;;;;;;4998049;28;20391;-69
2022/11/10 00:21:55;;;;;;;;;;;9.60;99.90;;;;;;4935139;28;206703;-68
2022/11/10 00:24:22;;;;;;;;;;;9.60;99.90;;;;;;5005527;28;19942;-69
2022/11/10 00:26:48;;;;;;;;;;;9.50;99.90;;;;;;4928735;28;209509;-68
2022/11/10 00:29:14;;;;;;;;;;;9.50;99.90;;;;;;4975622;28;20319;-68
2022/11/10 00:31:40;;;;;;;;;;;9.50;99.90;;;;;;4911387;28;205877;-68
2022/11/10 00:34:07;;;;;;;;;;;9.50;99.90;;;;;;4979757;28;19926;-68
2022/11/10 00:36:33;;;;;;;;;;;9.50;99.90;;;;;;4914997;28;209120;-68
2022/11/10 00:38:59;;;;;;;;;;;9.50;99.90;;;;;;4977889;28;19930;-68
2022/11/10 00:41:25;;;;;;;;;;;9.40;99.90;;;;;;4928389;28;208350;-68
2022/11/10 00:43:51;;;;;;;;;;;9.50;99.90;;;;;;4999540;28;19973;-68
2022/11/10 00:46:17;;;;;;;;;;;9.40;99.90;;;;;;4955824;28;207737;-68
2022/11/10 00:48:43;;;;;;;;;;;9.40;99.90;;;;;;4935464;28;36435;-69
2022/11/10 00:51:15;;;;;;;;;;;9.40;99.90;;;;;;4952467;28;19942;-68
2022/11/10 00:53:41;;;;;;;;;;;9.40;99.90;;;;;;4949683;28;270429;-67
2022/11/10 00:56:07;;;;;;;;;;;9.40;99.90;;;;;;4978754;28;19925;-67
2022/11/10 00:58:33;;;;;;;;;;;9.40;99.90;;;;;;4938001;28;209950;-68
2022/11/10 01:01:01;;;;;;;;;;;9.40;99.90;;;;;;4965045;28;20312;-68
2022/11/10 01:03:27;;;;;;;;;;;9.40;99.90;;;;;;4959462;28;205886;-67
2022/11/10 01:05:53;;;;;;;;;;;9.40;99.90;;;;;;4986910;28;19930;-68
2022/11/10 01:08:19;;;;;;;;;;;9.30;99.90;;;;;;4969299;28;198541;-68
2022/11/10 01:10:44;;;;;;;;;;;9.30;99.90;;;;;;4970886;28;20342;-68
2022/11/10 01:13:11;;;;;;;;;;;9.30;99.90;;;;;;4949420;28;218387;-69
2022/11/10 01:15:41;;;;;;;;;;;9.30;99.90;;;;;;4972286;28;19930;-69
2022/11/10 01:18:07;;;;;;;;;;;9.20;99.90;;;;;;4965618;28;171349;-68
2022/11/10 01:20:34;;;;;;;;;;;9.20;99.90;;;;;;4974701;28;19925;-68
2022/11/10 01:23:00;;;;;;;;;;;9.20;99.90;;;;;;4962251;28;203972;-69
2022/11/10 01:25:26;;;;;;;;;;;9.20;99.90;;;;;;4978594;28;19922;-69
2022/11/10 01:27:52;;;;;;;;;;;9.20;99.90;;;;;;4947200;28;206303;-69
2022/11/10 01:30:18;;;;;;;;;;;9.20;99.90;;;;;;4970202;28;19937;-68
2022/11/10 01:32:44;;;;;;;;;;;9.10;99.90;;;;;;4947243;28;206979;-68
2022/11/10 01:35:10;;;;;;;;;;;9.10;99.90;;;;;;4986095;28;19940;-69
2022/11/10 01:37:36;;;;;;;;;;;9.10;99.90;;;;;;4946749;28;218439;-68
2022/11/10 01:40:03;;;;;;;;;;;9.10;99.90;;;;;;4987737;28;19933;-69
2022/11/10 01:42:44;;;;;;;;;;;9.10;99.90;;;;;;4932028;28;207679;-68
2022/11/10 01:45:20;;;;;;;;;;;9.10;99.90;;;;;;4960449;28;20310;-68
2022/11/10 01:47:45;;;;;;;;;;;9.10;99.90;;;;;;4945498;28;238738;-68
2022/11/10 01:50:11;;;;;;;;;;;9.10;99.90;;;;;;4991248;28;20406;-67
2022/11/10 01:52:38;;;;;;;;;;;9.00;99.90;;;;;;4943671;28;211638;-68
2022/11/10 01:55:04;;;;;;;;;;;9.00;99.90;;;;;;4983375;28;20338;-68
2022/11/10 01:57:30;;;;;;;;;;;9.00;99.90;;;;;;4936800;28;208029;-67
2022/11/10 01:59:56;;;;;;;;;;;9.00;99.90;;;;;;4982302;28;19930;-67
2022/11/10 02:02:30;;;;;;;;;;;9.00;99.90;;;;;;4935616;28;144837;-67
2022/11/10 02:04:57;;;;;;;;;;;9.00;99.90;;;;;;4964045;28;20478;-68
2022/11/10 02:07:24;;;;;;;;;;;8.90;99.90;;;;;;4913903;28;208859;-68
2022/11/10 02:09:51;;;;;;;;;;;8.90;99.90;;;;;;4967760;28;19930;-67
2022/11/10 02:12:35;;;;;;;;;;;8.90;99.90;;;;;;4928785;28;212578;-67
2022/11/10 02:15:05;;;;;;;;;;;8.90;99.90;;;;;;4963270;28;19922;-68
2022/11/10 02:17:32;;;;;;;;;;;8.90;99.90;;;;;;4919550;28;208297;-68
2022/11/10 02:20:03;;;;;;;;;;;8.90;99.90;;;;;;4963002;28;20303;-68
2022/11/10 02:22:29;;;;;;;;;;;8.90;99.90;;;;;;4938238;28;225945;-68
2022/11/10 02:24:56;;;;;;;;;;;8.90;99.90;;;;;;4986934;28;19929;-67
2022/11/10 02:27:22;;;;;;;;;;;8.90;99.90;;;;;;4943267;28;221918;-68
2022/11/10 02:29:48;;;;;;;;;;;8.90;99.90;;;;;;4984935;28;20375;-68
2022/11/10 02:32:14;;;;;;;;;;;9.00;99.90;;;;;;4943501;28;207746;-68
2022/11/10 02:34:40;;;;;;;;;;;8.90;99.90;;;;;;4998730;28;19939;-67
2022/11/10 02:37:06;;;;;;;;;;;8.90;99.90;;;;;;4941620;28;218781;-68
2022/11/10 02:39:32;;;;;;;;;;;9.00;99.90;;;;;;4997017;28;19937;-68
2022/11/10 02:41:58;;;;;;;;;;;9.00;99.90;;;;;;4929194;28;208111;-67
2022/11/10 02:44:23;;;;;;;;;;;9.00;99.90;;;;;;4978136;28;19972;-66
2022/11/10 02:46:49;;;;;;;;;;;9.00;99.90;;;;;;4930585;28;213329;-68
2022/11/10 02:49:15;;;;;;;;;;;9.00;99.90;;;;;;5002524;28;20017;-68
2022/11/10 02:51:41;;;;;;;;;;;9.00;99.90;;;;;;4921840;28;237881;-67
2022/11/10 02:54:07;;;;;;;;;;;9.00;99.90;;;;;;4991897;28;19948;-67
2022/11/10 02:56:34;;;;;;;;;;;9.00;99.90;;;;;;4932243;28;216481;-68
2022/11/10 02:59:00;;;;;;;;;;;9.10;99.90;;;;;;4983337;28;20410;-68
2022/11/10 03:01:26;;;;;;;;;;;9.10;99.90;;;;;;4923855;28;207083;-67
2022/11/10 03:03:52;;;;;;;;;;;9.10;99.90;;;;;;5010770;28;19929;-68
2022/11/10 03:06:18;;;;;;;;;;;9.10;99.90;;;;;;4970616;28;211025;-68
2022/11/10 03:08:44;;;;;;;;;;;9.10;99.90;;;;;;4978227;28;208406;-69
2022/11/10 03:11:10;;;;;;;;;;;9.10;99.90;;;;;;4997709;28;19922;-68
2022/11/10 03:13:36;;;;;;;;;;;9.20;99.90;;;;;;4944727;28;207649;-68
2022/11/10 03:16:02;;;;;;;;;;;9.10;99.90;;;;;;4973594;28;19937;-68
2022/11/10 03:18:28;;;;;;;;;;;9.10;99.90;;;;;;4929624;28;217954;-68
2022/11/10 03:20:53;;;;;;;;;;;9.10;99.90;;;;;;4954319;28;20007;-68
2022/11/10 03:23:19;;;;;;;;;;;9.20;99.90;;;;;;4965752;28;206207;-68
2022/11/10 03:25:45;;;;;;;;;;;9.10;99.90;;;;;;4969428;28;19922;-68
2022/11/10 03:28:12;;;;;;;;;;;9.10;99.90;;;;;;4970527;28;154054;-68
2022/11/10 03:30:38;;;;;;;;;;;9.20;99.90;;;;;;4967355;28;19930;-68
2022/11/10 03:33:04;;;;;;;;;;;9.10;99.90;;;;;;4960558;28;213051;-68
2022/11/10 03:35:30;;;;;;;;;;;9.10;99.90;;;;;;4980462;28;19940;-68
2022/11/10 03:37:56;;;;;;;;;;;9.10;99.90;;;;;;4952277;28;206233;-68
2022/11/10 03:40:22;;;;;;;;;;;9.10;99.90;;;;;;4993261;28;20009;-68
2022/11/10 03:42:48;;;;;;;;;;;9.10;99.90;;;;;;4940007;28;206984;-68
2022/11/10 03:45:15;;;;;;;;;;;9.10;99.90;;;;;;4977774;28;19928;-68
2022/11/10 03:47:43;;;;;;;;;;;9.10;99.90;;;;;;4948475;28;210409;-68
2022/11/10 03:50:09;;;;;;;;;;;9.10;99.90;;;;;;4972825;28;19945;-68
2022/11/10 03:52:37;;;;;;;;;;;9.10;99.90;;;;;;4946364;28;207824;-68
2022/11/10 03:55:03;;;;;;;;;;;9.10;99.90;;;;;;4983762;28;20438;-69
2022/11/10 03:57:29;;;;;;;;;;;9.10;99.90;;;;;;4937072;28;212633;-68
2022/11/10 03:59:55;;;;;;;;;;;9.10;99.90;;;;;;4981678;28;20020;-68
2022/11/10 04:02:21;;;;;;;;;;;9.10;99.90;;;;;;4930484;28;211607;-68
2022/11/10 04:10:17;;;;;;;;;;;9.20;99.90;;;;;;4961125;28;19938;-69
2022/11/10 04:15:42;;;;;;;;;;;9.20;99.90;;;;;;4970989;28;19926;-69
2022/11/10 04:18:23;;;;;;;;;;;9.20;99.90;;;;;;4944874;28;209700;-68
2022/11/10 04:20:50;;;;;;;;;;;9.20;99.90;;;;;;4998765;28;19926;-68
2022/11/10 04:23:29;;;;;;;;;;;9.20;99.90;;;;;;4936537;28;210983;-69
2022/11/10 04:28:41;;;;;;;;;;;9.30;99.90;;;;;;4959120;28;173253;-69
2022/11/10 04:31:07;;;;;;;;;;;9.30;99.90;;;;;;4974759;28;20474;-69
2022/11/10 04:33:34;;;;;;;;;;;9.30;99.90;;;;;;4950301;28;177875;-67
2022/11/10 04:36:00;;;;;;;;;;;9.30;99.90;;;;;;4988866;28;19933;-68
2022/11/10 04:38:26;;;;;;;;;;;9.30;99.90;;;;;;4937646;28;207838;-68
2022/11/10 04:40:52;;;;;;;;;;;9.30;99.90;;;;;;4955045;28;19931;-68
2022/11/10 04:43:18;;;;;;;;;;;9.30;99.90;;;;;;4969853;28;205198;-67
2022/11/10 04:45:44;;;;;;;;;;;9.30;99.90;;;;;;4974164;28;19937;-68
2022/11/10 04:48:10;;;;;;;;;;;9.30;99.90;;;;;;4963138;28;207030;-68
2022/11/10 04:50:36;;;;;;;;;;;9.30;99.90;;;;;;4974227;28;20036;-68
2022/11/10 04:53:02;;;;;;;;;;;9.40;99.90;;;;;;4961947;28;181815;-67
2022/11/10 04:55:28;;;;;;;;;;;9.30;99.90;;;;;;4979609;28;20236;-68
2022/11/10 04:57:54;;;;;;;;;;;9.40;99.90;;;;;;4953236;28;198305;-68
2022/11/10 05:00:20;;;;;;;;;;;9.40;99.90;;;;;;4976537;28;19990;-68
2022/11/10 05:02:46;;;;;;;;;;;9.40;99.90;;;;;;4945048;28;211908;-68
2022/11/10 05:05:11;;;;;;;;;;;9.40;99.90;;;;;;4985297;28;19922;-68
2022/11/10 05:07:37;;;;;;;;;;;9.40;99.90;;;;;;4944748;28;209193;-69
2022/11/10 05:10:03;;;;;;;;;;;9.40;99.90;;;;;;4985659;28;20426;-68
2022/11/10 05:12:29;;;;;;;;;;;9.40;99.90;;;;;;4933372;28;215896;-69
2022/11/10 05:14:55;;;;;;;;;;;9.40;99.90;;;;;;4971574;28;19922;-69
2022/11/10 05:17:21;;;;;;;;;;;9.30;99.90;;;;;;4923595;28;214064;-68
2022/11/10 05:19:48;;;;;;;;;;;9.30;99.90;;;;;;4958742;28;19927;-69
2022/11/10 05:22:14;;;;;;;;;;;9.40;99.90;;;;;;4930660;28;205785;-67
2022/11/10 05:24:40;;;;;;;;;;;9.40;99.90;;;;;;5000390;28;19937;-68
2022/11/10 05:27:09;;;;;;;;;;;9.30;99.90;;;;;;4927703;28;207855;-67
2022/11/10 05:29:35;;;;;;;;;;;9.30;99.90;;;;;;4977171;28;19949;-68
2022/11/10 05:32:01;;;;;;;;;;;9.40;99.90;;;;;;4939150;28;210042;-68
2022/11/10 05:34:27;;;;;;;;;;;9.40;99.90;;;;;;4976043;28;19932;-68
2022/11/10 05:36:53;;;;;;;;;;;9.40;99.90;;;;;;4933930;28;206969;-69
2022/11/10 05:39:19;;;;;;;;;;;9.40;99.90;;;;;;5001932;28;20020;-68
2022/11/10 05:41:45;;;;;;;;;;;9.40;99.90;;;;;;4917964;28;206139;-67
2022/11/10 05:44:11;;;;;;;;;;;9.40;99.90;;;;;;4987205;28;19953;-69
2022/11/10 05:46:37;;;;;;;;;;;9.40;99.90;;;;;;4919013;28;207155;-68
2022/11/10 05:49:03;;;;;;;;;;;9.40;99.90;;;;;;5001625;28;19930;-67
2022/11/10 05:51:29;;;;;;;;;;;9.40;99.90;;;;;;4958262;28;210166;-68
2022/11/10 05:53:55;;;;;;;;;;;9.40;99.90;;;;;;4979953;28;20365;-67
2022/11/10 05:56:21;;;;;;;;;;;9.40;99.90;;;;;;4931350;28;207522;-67
2022/11/10 05:58:47;;;;;;;;;;;9.50;99.90;;;;;;4946100;28;21075;-68
2022/11/10 06:01:13;;;;;;;;;;;9.40;99.90;;;;;;4966015;28;19930;-68
2022/11/10 06:03:39;;;;;;;;;;;9.50;99.90;;;;;;4964415;28;41567;-68
2022/11/10 06:06:05;;;;;;;;;;;9.50;99.90;;;;;;4977264;28;20387;-67
2022/11/10 06:08:31;;;;;;;;;;;9.50;99.90;;;;;;4965878;28;206102;-68
2022/11/10 06:10:57;;;;;;;;;;;9.50;99.90;;;;;;4968430;28;20394;-67
2022/11/10 06:13:24;;;;;;;;;;;9.60;99.90;;;;;;4946556;28;213036;-68
2022/11/10 06:15:50;;;;;;;;;;;9.50;99.90;;;;;;4959901;28;19933;-68
2022/11/10 06:18:16;;;;;;;;;;;9.60;99.90;;;;;;4967724;28;199752;-68
2022/11/10 06:20:42;;;;;;;;;;;9.50;99.90;;;;;;4959335;28;19943;-68
2022/11/10 06:23:09;;;;;;;;;;;9.60;99.90;;;;;;4963677;28;208186;-68
2022/11/10 06:25:36;;;;;;;;;;;9.60;99.90;;;;;;4978477;28;19925;-67
2022/11/10 06:28:03;;;;;;;;;;;9.60;99.90;;;;;;4938175;28;188656;-68
2022/11/10 06:30:29;;;;;;;;;;;9.50;99.90;;;;;;4948098;28;19927;-67
2022/11/10 06:32:55;;;;;;;;;;;9.60;99.90;;;;;;4927112;28;206770;-67
2022/11/10 06:35:22;;;;;;;;;;;9.60;99.90;;;;;;4955766;28;19937;-67
2022/11/10 06:37:59;;;;;;;;;;;9.60;99.90;;;;;;4928099;28;210108;-68
2022/11/10 06:40:26;;;;;;;;;;;9.60;99.90;;;;;;4971338;28;19926;-67
2022/11/10 06:42:52;;;;;;;;;;;9.60;99.90;;;;;;4945059;28;210000;-68
2022/11/10 06:45:18;;;;;;;;;;;9.50;99.90;;;;;;4972291;28;20335;-67
2022/11/10 06:47:44;;;;;;;;;;;9.60;99.90;;;;;;4951726;28;206042;-67
2022/11/10 06:50:10;;;;;;;;;;;9.60;99.90;;;;;;4977101;28;19930;-68
2022/11/10 06:52:36;;;;;;;;;;;9.60;99.90;;;;;;4948926;28;209619;-68
2022/11/10 06:55:02;;;;;;;;;;;9.50;99.90;;;;;;4981342;28;19985;-68
2022/11/10 06:57:28;;;;;;;;;;;9.60;99.90;;;;;;4959797;28;189258;-67
2022/11/10 06:59:54;;;;;;;;;;;9.60;99.90;;;;;;4986757;28;19946;-68
2022/11/10 07:02:20;;;;;;;;;;;9.50;99.90;;;;;;4905726;28;207387;-68
2022/11/10 07:04:46;;;;;;;;;;;9.50;99.90;;;;;;4953574;28;20411;-68
2022/11/10 07:07:15;;;;;;;;;;;9.60;99.90;;;;;;4911158;28;206041;-68
2022/11/10 07:09:41;;;;;;;;;;;9.60;99.90;;;;;;4994961;28;19930;-68
2022/11/10 07:12:07;;;;;;;;;;;9.60;99.90;;;;;;4934987;28;209413;-68
2022/11/10 07:14:33;;;;;;;;;;;9.60;99.90;;;;;;4991958;28;19922;-67
2022/11/10 07:16:59;;;;;;;;;;;9.60;99.90;;;;;;4937258;28;207529;-68
2022/11/10 07:19:25;;;;;;;;;;;9.60;99.90;;;;;;4985344;28;19942;-68
2022/11/10 07:21:51;;;;;;;;;;;9.60;99.90;;;;;;4948438;28;212404;-68
2022/11/10 07:24:17;;;;;;;;;;;9.70;99.90;;;;;;4985875;28;20008;-67
2022/11/10 07:26:43;;;;;;;;;;;9.70;99.90;;;;;;4916807;28;207668;-67
2022/11/10 07:29:09;;;;;;;;;;;9.70;99.90;;;;;;4999817;28;19928;-67
2022/11/10 07:31:35;;;;;;;;;;;9.80;99.90;;;;;;4925509;28;206028;-68
2022/11/10 07:34:01;;;;;;;;;;;9.70;99.90;;;;;;4996227;28;19924;-69
2022/11/10 07:36:28;;;;;;;;;;;9.70;99.90;;;;;;4926044;28;206599;-69
2022/11/10 07:38:54;;;;;;;;;;;9.70;99.90;;;;;;5007313;28;20310;-71
2022/11/10 07:41:20;;;;;;;;;;;9.70;99.90;;;;;;4944616;28;207248;-68
2022/11/10 07:43:46;;;;;;;;;;;9.80;99.90;;;;;;4994002;28;19930;-68
2022/11/10 07:46:12;;;;;;;;;;;9.80;99.90;;;;;;4970889;28;19998;-70
2022/11/10 07:48:38;;;;;;;;;;;9.80;99.90;;;;;;4932067;28;162421;-68
2022/11/10 07:51:04;;;;;;;;;;;9.80;99.90;;;;;;4947268;28;19932;-69
2022/11/10 07:53:30;;;;;;;;;;;9.80;99.90;;;;;;4946130;28;180631;-69
2022/11/10 07:55:56;;;;;;;;;;;9.90;99.90;;;;;;4968319;28;19926;-68
2022/11/10 07:58:22;;;;;;;;;;;9.90;99.90;;;;;;4953180;28;211577;-68
2022/11/10 08:00:48;;;;;;;;;;;9.90;99.90;;;;;;4977486;28;20288;-68
2022/11/10 08:03:16;;;;;;;;;;;9.90;99.90;;;;;;4908271;28;206057;-71
2022/11/10 08:05:42;;;;;;;;;;;9.90;99.90;;;;;;4950057;28;19937;-68
2022/11/10 08:08:08;;;;;;;;;;;9.90;99.90;;;;;;4939772;28;208579;-68
2022/11/10 08:10:35;;;;;;;;;;;9.90;99.90;;;;;;4963269;28;19930;-68
2022/11/10 08:13:02;;;;;;;;;;;9.90;99.90;;;;;;4910674;28;216931;-68
2022/11/10 08:15:29;;;;;;;;;;;10.00;99.90;;;;;;4948445;28;19934;-68
2022/11/10 08:18:06;;;;;;;;;;;9.90;99.90;;;;;;4934369;28;207462;-69
2022/11/10 08:20:32;;;;;;;;;;;10.00;99.90;;;;;;4980837;28;19934;-68
2022/11/10 08:22:59;;;;;;;;;;;10.00;99.90;;;;;;4931663;28;207838;-68
2022/11/10 08:25:26;;;;;;;;;;;10.10;99.90;;;;;;4955091;28;19941;-68
2022/11/10 08:27:58;;;;;;;;;;;10.10;99.90;;;;;;4961094;28;115005;-67
2022/11/10 08:30:24;;;;;;;;;;;10.20;99.90;;;;;;4992369;28;19926;-67
2022/11/10 08:32:52;;;;;;;;;;;10.30;99.90;;;;;;4950266;28;207229;-68
2022/11/10 08:35:18;;;;;;;;;;;10.40;99.90;;;;;;4979634;28;20280;-68
2022/11/10 08:37:44;;;;;;;;;;;10.50;99.90;;;;;;4966632;28;129902;-68
2022/11/10 08:40:10;;;;;;;;;;;10.60;99.90;;;;;;5001051;28;19959;-69
2022/11/10 08:42:36;;;;;;;;;;;10.70;99.90;;;;;;4947419;28;211400;-67
2022/11/10 08:45:02;;;;;;;;;;;10.80;99.90;;;;;;4980773;28;20399;-67
2022/11/10 08:47:28;;;;;;;;;;;10.80;99.90;;;;;;4940757;28;205973;-67
2022/11/10 08:49:54;;;;;;;;;;;10.80;99.90;;;;;;4985349;28;19962;-67
2022/11/10 08:52:20;;;;;;;;;;;10.90;99.90;;;;;;4941948;28;207644;-68
2022/11/10 08:54:46;;;;;;;;;;;10.90;99.90;;;;;;4994782;28;19969;-68
2022/11/10 08:57:12;;;;;;;;;;;10.90;99.90;;;;;;4930579;28;222745;-68
2022/11/10 08:59:38;;;;;;;;;;;10.90;99.90;;;;;;4974173;28;19984;-69
2022/11/10 09:02:03;;;;;;;;;;;10.90;99.90;;;;;;4920580;28;226263;-69
2022/11/10 09:04:29;;;;;;;;;;;10.90;99.90;;;;;;4993924;28;19929;-68
2022/11/10 09:06:56;;;;;;;;;;;10.90;99.90;;;;;;4943257;28;180438;-68
2022/11/10 09:09:25;;;;;;;;;;;11.00;99.90;;;;;;4987353;28;19930;-66
2022/11/10 09:11:52;;;;;;;;;;;11.10;99.90;;;;;;4959807;28;162503;-68
2022/11/10 09:14:18;;;;;;;;;;;11.20;99.90;;;;;;4975091;28;19930;-67
2022/11/10 09:16:44;;;;;;;;;;;11.30;99.90;;;;;;4930110;28;205914;-68
2022/11/10 09:19:10;;;;;;;;;;;11.30;99.90;;;;;;4987615;28;19922;-68
2022/11/10 09:21:36;;;;;;;;;;;11.40;99.90;;;;;;4921180;28;212396;-68
2022/11/10 09:24:02;;;;;;;;;;;11.50;99.90;;;;;;4992976;28;19929;-67
2022/11/10 09:26:29;;;;;;;;;;;11.60;99.90;;;;;;4916573;28;212573;-69
2022/11/10 09:28:55;;;;;;;;;;;11.70;99.90;;;;;;5003976;28;19933;-68
2022/11/10 09:31:21;;;;;;;;;;;11.70;99.90;;;;;;4952463;28;212852;-68
2022/11/10 09:33:48;;;;;;;;;;;11.70;99.90;;;;;;4941470;28;20045;-69
2022/11/10 09:36:13;;;;;;;;;;;11.80;99.90;;;;;;4945605;28;19930;-68
2022/11/10 09:38:39;;;;;;;;;;;11.90;99.90;;;;;;4940007;28;177002;-68
2022/11/10 09:41:07;;;;;;;;;;;12.00;99.90;;;;;;4975890;28;19961;-68
2022/11/10 09:43:45;;;;;;;;;;;12.00;99.90;;;;;;4960695;28;207930;-68
2022/11/10 09:46:20;;;;;;;;;;;12.10;99.90;;;;;;4967038;28;19926;-69
2022/11/10 09:48:49;;;;;;;;;;;12.20;99.90;;;;;;4937589;28;207920;-68
2022/11/10 09:51:24;;;;;;;;;;;12.30;99.90;;;;;;4951480;28;208291;-68
2022/11/10 09:54:04;;;;;;;;;;;12.40;99.90;;;;;;4971388;28;207378;-68
2022/11/10 09:56:34;;;;;;;;;;;12.50;99.90;;;;;;4917359;28;208864;-68
2022/11/10 09:59:10;;;;;;;;;;;12.50;99.90;;;;;;4988854;28;20391;-68
2022/11/10 10:01:35;;;;;;;;;;;12.60;99.90;;;;;;4894928;28;213738;-69
2022/11/10 10:04:28;;;;;;;;;;;12.60;99.90;;;;;;4962329;28;20308;-68
2022/11/10 10:06:54;;;;;;;;;;;12.70;99.90;;;;;;4953273;28;209474;-69
2022/11/10 10:09:26;;;;;;;;;;;12.70;99.90;;;;;;4976800;28;19981;-67
2022/11/10 10:12:00;;;;;;;;;;;12.70;99.90;;;;;;4958294;28;168666;-68
2022/11/10 10:14:48;;;;;;;;;;;12.80;99.90;;;;;;4990292;28;20944;-68
2022/11/10 10:17:22;;;;;;;;;;;12.80;99.90;;;;;;4940496;28;169254;-68
2022/11/10 10:19:52;;;;;;;;;;;12.90;99.90;;;;;;4991880;28;20006;-69
2022/11/10 10:22:37;;;;;;;;;;;13.00;99.90;;;;;;4951990;28;183114;-67
2022/11/10 10:25:12;;;;;;;;;;;13.00;99.90;;;;;;4988838;28;19925;-69
2022/11/10 10:27:39;;;;;;;;;;;13.00;99.90;;;;;;4964070;28;206331;-68
2022/11/10 10:30:17;;;;;;;;;;;13.10;99.90;;;;;;4988266;28;19932;-67
2022/11/10 10:32:43;;;;;;;;;;;13.10;99.90;;;;;;4956839;28;210015;-68
2022/11/10 10:35:16;;;;;;;;;;;13.10;99.90;;;;;;4978845;28;19944;-68
2022/11/10 10:37:50;;;;;;;;;;;13.10;99.90;;;;;;4958974;28;150802;-68
2022/11/10 10:40:18;;;;;;;;;;;13.20;99.90;;;;;;4973693;28;20897;-68
2022/11/10 10:42:44;;;;;;;;;;;13.30;99.90;;;;;;4968640;28;179349;-69
2022/11/10 10:45:23;;;;;;;;;;;13.30;99.90;;;;;;4973904;28;19929;-68
2022/11/10 10:47:50;;;;;;;;;;;13.40;99.90;;;;;;4952424;28;205075;-67
2022/11/10 10:50:21;;;;;;;;;;;13.50;99.90;;;;;;4987604;28;19937;-69
2022/11/10 10:53:06;;;;;;;;;;;13.60;99.90;;;;;;4961101;28;206770;-68
2022/11/10 10:55:33;;;;;;;;;;;13.60;99.90;;;;;;4997127;28;19937;-67
2022/11/10 10:58:00;;;;;;;;;;;13.60;99.90;;;;;;4940897;28;205722;-67
2022/11/10 11:00:28;;;;;;;;;;;13.70;99.90;;;;;;4952624;28;19934;-67
2022/11/10 11:03:01;;;;;;;;;;;13.70;99.90;;;;;;4938624;28;182264;-67
2022/11/10 11:05:27;;;;;;;;;;;13.60;99.90;;;;;;4972326;28;20294;-67
2022/11/10 11:07:54;;;;;;;;;;;13.70;99.90;;;;;;4935662;28;182675;-67
2022/11/10 11:10:25;;;;;;;;;;;13.70;99.90;;;;;;4968254;28;19926;-68
2022/11/10 11:12:51;;;;;;;;;;;13.70;99.90;;;;;;4947260;28;216082;-68
2022/11/10 11:15:28;;;;;;;;;;;13.60;99.90;;;;;;4982073;28;19922;-68
2022/11/10 11:17:56;;;;;;;;;;;13.60;99.90;;;;;;4965205;28;123679;-67
2022/11/10 11:20:25;;;;;;;;;;;13.60;99.90;;;;;;4975304;28;19934;-69
2022/11/10 11:22:55;;;;;;;;;;;13.70;99.90;;;;;;4928647;28;207806;-69
2022/11/10 11:25:24;;;;;;;;;;;13.80;99.90;;;;;;4953548;28;19930;-68
2022/11/10 11:27:57;;;;;;;;;;;13.80;99.90;;;;;;4915660;28;210215;-68
2022/11/10 11:30:27;;;;;;;;;;;13.90;99.90;;;;;;4966869;28;20619;-67
2022/11/10 11:32:53;;;;;;;;;;;13.90;99.90;;;;;;4951630;28;222464;-70
2022/11/10 11:35:26;;;;;;;;;;;13.90;99.90;;;;;;4977556;28;19937;-68
2022/11/10 11:37:57;;;;;;;;;;;14.00;99.90;;;;;;4922556;28;213283;-69
2022/11/10 11:40:42;;;;;;;;;;;14.00;99.90;;;;;;4969562;28;19926;-68
2022/11/10 11:43:08;;;;;;;;;;;14.00;99.90;;;;;;4971489;28;140983;-68
2022/11/10 11:45:53;;;;;;;;;;;14.00;99.90;;;;;;4972828;28;19922;-70
2022/11/10 11:48:18;;;;;;;;;;;14.20;99.90;;;;;;4965762;28;212411;-69
2022/11/10 11:50:49;;;;;;;;;;;14.30;99.90;;;;;;4965906;28;20016;-69
2022/11/10 11:53:15;;;;;;;;;;;14.10;99.90;;;;;;4948443;28;208683;-68
2022/11/10 11:55:44;;;;;;;;;;;14.00;99.90;;;;;;4973563;28;19957;-69
2022/11/10 11:58:19;;;;;;;;;;;14.00;99.90;;;;;;4959712;28;198706;-69
2022/11/10 12:01:03;;;;;;;;;;;13.90;99.90;;;;;;4972869;28;19941;-69
2022/11/10 12:03:48;;;;;;;;;;;13.90;99.90;;;;;;4939529;28;164825;-70
2022/11/10 12:06:31;;;;;;;;;;;13.90;99.90;;;;;;4976485;28;205968;-69
2022/11/10 12:09:03;;;;;;;;;;;13.80;99.90;;;;;;4947313;28;207908;-69
2022/11/10 12:11:52;;;;;;;;;;;13.70;99.90;;;;;;4926795;28;208028;-68
2022/11/10 12:14:28;;;;;;;;;;;13.70;99.90;;;;;;4957287;28;19926;-69
2022/11/10 12:17:16;;;;;;;;;;;13.60;99.90;;;;;;4937727;28;173498;-69
2022/11/10 12:20:02;;;;;;;;;;;13.60;99.90;;;;;;4987669;28;19974;-70
2022/11/10 12:22:34;;;;;;;;;;;13.50;99.90;;;;;;4961211;28;192113;-69
2022/11/10 12:25:23;;;;;;;;;;;13.50;99.90;;;;;;4969020;28;19926;-70
2022/11/10 12:27:54;;;;;;;;;;;13.50;99.90;;;;;;4966104;28;169788;-68
2022/11/10 12:30:20;;;;;;;;;;;13.40;99.90;;;;;;4978335;28;19930;-70
2022/11/10 12:32:59;;;;;;;;;;;13.40;99.90;;;;;;4947715;28;206418;-69
2022/11/10 12:35:26;;;;;;;;;;;13.50;99.90;;;;;;4972190;28;19937;-69
2022/11/10 12:37:58;;;;;;;;;;;13.40;99.90;;;;;;4970659;28;52672;-69
2022/11/10 12:40:24;;;;;;;;;;;13.40;99.90;;;;;;4975563;28;19941;-69
2022/11/10 12:43:00;;;;;;;;;;;13.40;99.90;;;;;;4934271;28;207298;-68
2022/11/10 12:45:39;;;;;;;;;;;13.40;99.90;;;;;;4976075;28;20305;-69
2022/11/10 12:48:05;;;;;;;;;;;13.40;99.90;;;;;;4929977;28;225657;-68
2022/11/10 12:50:41;;;;;;;;;;;13.40;99.90;;;;;;4952148;28;20626;-69
2022/11/10 12:53:21;;;;;;;;;;;13.40;99.90;;;;;;4951631;28;207291;-68
2022/11/10 12:55:54;;;;;;;;;;;13.40;99.90;;;;;;4961429;28;19933;-69
2022/11/10 12:58:20;;;;;;;;;;;13.50;99.90;;;;;;4948183;28;207449;-69
2022/11/10 13:00:55;;;;;;;;;;;13.50;99.90;;;;;;4981229;28;19934;-68
2022/11/10 13:03:27;;;;;;;;;;;13.60;99.90;;;;;;4954625;28;159343;-67
2022/11/10 13:05:54;;;;;;;;;;;13.60;99.90;;;;;;4966939;28;19926;-69
2022/11/10 13:08:29;;;;;;;;;;;13.60;99.90;;;;;;4958982;28;206104;-68
2022/11/10 13:10:59;;;;;;;;;;;13.60;99.90;;;;;;4981974;28;20028;-69
2022/11/10 13:13:25;;;;;;;;;;;13.60;99.90;;;;;;4928894;28;209702;-68
2022/11/10 13:15:54;;;;;;;;;;;13.70;99.90;;;;;;4970384;28;19926;-69
2022/11/10 13:18:22;;;;;;;;;;;13.60;99.90;;;;;;4933105;28;207462;-69
2022/11/10 13:20:50;;;;;;;;;;;13.70;99.90;;;;;;4987418;28;20343;-69
2022/11/10 13:23:19;;;;;;;;;;;13.70;99.90;;;;;;4937217;28;225641;-69
2022/11/10 13:25:52;;;;;;;;;;;13.90;99.90;;;;;;4949116;28;19954;-69
2022/11/10 13:28:37;;;;;;;;;;;14.40;99.90;;;;;;4941559;28;207661;-67
2022/11/10 13:31:22;;;;;;;;;;;14.40;99.90;;;;;;4980722;28;19922;-69
2022/11/10 13:34:04;;;;;;;;;;;14.50;99.90;;;;;;4952507;28;35446;-70
2022/11/10 13:36:56;;;;;;;;;;;14.50;99.90;;;;;;4950297;28;212968;-69
2022/11/10 13:39:24;;;;;;;;;;;14.40;99.90;;;;;;5001793;28;19930;-70
2022/11/10 13:41:55;;;;;;;;;;;14.20;99.90;;;;;;4941757;28;204941;-69
2022/11/10 13:44:46;;;;;;;;;;;14.10;99.90;;;;;;5000948;28;20288;-69
2022/11/10 13:47:33;;;;;;;;;;;14.10;99.90;;;;;;4932118;28;207803;-69
2022/11/10 13:49:59;;;;;;;;;;;14.00;99.90;;;;;;4973782;28;19926;-69
2022/11/10 13:52:44;;;;;;;;;;;14.10;99.90;;;;;;4948209;28;212662;-69
2022/11/10 13:55:28;;;;;;;;;;;14.00;99.90;;;;;;4974198;28;19926;-68
2022/11/10 13:57:59;;;;;;;;;;;14.10;99.90;;;;;;4943054;28;231199;-69
2022/11/10 14:00:30;;;;;;;;;;;14.00;99.90;;;;;;4965526;28;20745;-68
2022/11/10 14:03:02;;;;;;;;;;;14.00;99.90;;;;;;4936660;28;154482;-69
2022/11/10 14:05:28;;;;;;;;;;;14.00;99.90;;;;;;4969254;28;19933;-69
2022/11/10 14:08:12;;;;;;;;;;;14.00;99.90;;;;;;4954118;28;213071;-69
2022/11/10 14:10:46;;;;;;;;;;;13.90;99.90;;;;;;4958627;28;19922;-69
2022/11/10 14:13:32;;;;;;;;;;;13.90;99.90;;;;;;4965805;28;206379;-69
2022/11/10 14:15:58;;;;;;;;;;;13.90;99.90;;;;;;4980724;28;20295;-68
2022/11/10 14:18:27;;;;;;;;;;;13.90;99.90;;;;;;4958657;28;206848;-66
2022/11/10 14:20:55;;;;;;;;;;;13.90;99.90;;;;;;5001388;28;20068;-67
2022/11/10 14:23:24;;;;;;;;;;;13.90;99.90;;;;;;4961198;28;217772;-68
2022/11/10 14:25:57;;;;;;;;;;;13.90;99.90;;;;;;4969187;28;19922;-67
2022/11/10 14:28:24;;;;;;;;;;;13.80;99.90;;;;;;4932494;28;212347;-67
2022/11/10 14:30:51;;;;;;;;;;;13.80;99.90;;;;;;4948645;28;19957;-69
2022/11/10 14:33:17;;;;;;;;;;;13.90;99.90;;;;;;4940117;28;218284;-69
2022/11/10 14:35:43;;;;;;;;;;;13.90;99.90;;;;;;4952282;28;20413;-68
2022/11/10 14:38:30;;;;;;;;;;;13.80;99.90;;;;;;4944477;28;207579;-68
2022/11/10 14:41:00;;;;;;;;;;;13.80;99.90;;;;;;4994921;28;19937;-69
2022/11/10 14:43:26;;;;;;;;;;;13.80;99.90;;;;;;4956819;28;208888;-68